Portada
METAR-TAF:

METAR-TAF

Aeroports :

Lumberton Municipal Airport

Lumberton, Carolina del Nord, Estats Units d'Amèrica

latitud: 34-36-26N, longitud: 079-03-36W, altitud: 38 m

METAR: manca

Hora: 23:37 (03:37 UTC)

Pronòstic

L'informe es va fer fa 4 hores i 16 minuts, a les 23:21 UTC
Pronòstic vàlid del 05 a les 00 UTC al 05 a les 24 UTC
Vent 3 kt amb direcció variable
Visibilitat: 10 km
Escasses núvols a una alçada de 8000 ft
A partir de les 05 a les 1700 UTC
Vent 5 kt del Sud
Visibilitat: 10 km
Núvols disperses a una alçada de 20000 ft

TAF: KLBT 042321Z 0500/0524 VRB03KT P6SM FEW080 FM051700 18005KT P6SM SCT200 AMD NOT SKED

Observacions i pronòstics meteorològics de més de 4000 aeroports (METAR i TAF).

Les estacions disponibles són els punts grocs i vermells al mapa.

Posi el ratolí al punt desitjat per veure el nom de l'estació.

Feu clic per veure les observacions i els pronòstics meteorològics.

Per canviar el mapa: feu clic els botons verds amb una creu de color negre per apropar; al botó verd amb un guió per allunyar la imatge; o en les fletxes verdes per a mapes adjacents.


METAR-TAF: